Time;durP1;ratioP1;P1;durP2;ratioP2;P2;SDS_P1;SDS_P2;PMS_P1;PMS_P2;Temp;Humidity;BMP_temperature;BMP_pressure;BME280_temperature;BME280_humidity;BME280_pressure;Samples;Min_cycle;Max_cycle;Signal;HPM_P1;HPM_P2
2021/08/26 00:00:17;;;;;;;0.05;0.05;;;14.80;99.90;;;;;;6173125;23;20432;-82
2021/08/26 00:05:47;;;;;;;0.00;0.00;;;14.80;99.90;;;;;;6197845;23;20136;-83
2021/08/26 00:08:15;;;;;;;0.00;0.00;;;14.80;99.90;;;;;;6197651;23;20326;-82
2021/08/26 00:10:42;;;;;;;0.10;0.10;;;14.80;99.90;;;;;;6172721;23;20050;-82
2021/08/26 00:13:11;;;;;;;0.00;0.00;;;14.80;99.90;;;;;;6172971;23;20020;-83
2021/08/26 00:15:41;;;;;;;0.00;0.00;;;14.80;99.90;;;;;;6172691;23;20443;-83
2021/08/26 00:18:08;;;;;;;0.00;0.00;;;14.80;99.90;;;;;;6172881;23;20434;-83
2021/08/26 00:20:35;;;;;;;0.00;0.00;;;14.80;99.90;;;;;;6172690;23;20020;-83
2021/08/26 00:23:02;;;;;;;0.00;0.00;;;14.80;99.90;;;;;;6172320;23;20018;-83
2021/08/26 00:25:29;;;;;;;0.00;0.00;;;14.80;99.90;;;;;;6172943;23;20050;-83
2021/08/26 00:27:56;;;;;;;0.00;0.00;;;14.80;99.90;;;;;;6172589;23;20014;-82
2021/08/26 00:30:23;;;;;;;0.00;0.00;;;14.80;99.90;;;;;;6172849;23;20093;-82
2021/08/26 00:32:49;;;;;;;0.00;0.00;;;14.90;99.90;;;;;;6172536;23;20018;-83
2021/08/26 00:35:16;;;;;;;0.00;0.00;;;14.90;99.90;;;;;;6172864;23;20013;-82
2021/08/26 00:37:43;;;;;;;0.00;0.00;;;14.90;99.90;;;;;;6172474;23;20125;-83
2021/08/26 00:40:10;;;;;;;0.08;0.08;;;14.90;99.90;;;;;;6197101;23;20018;-82
2021/08/26 00:42:38;;;;;;;0.00;0.00;;;14.90;99.90;;;;;;6172739;23;20009;-82
2021/08/26 00:45:06;;;;;;;0.00;0.00;;;14.90;99.90;;;;;;6196932;23;20009;-83
2021/08/26 00:47:34;;;;;;;0.00;0.00;;;14.90;99.90;;;;;;6172732;23;20055;-83
2021/08/26 00:50:01;;;;;;;0.00;0.00;;;14.90;99.90;;;;;;6172434;23;20017;-83
2021/08/26 00:52:28;;;;;;;0.00;0.00;;;14.90;99.90;;;;;;6173131;23;20438;-83
2021/08/26 00:54:55;;;;;;;0.00;0.00;;;14.90;99.90;;;;;;6172266;23;20013;-82
2021/08/26 00:57:23;;;;;;;0.00;0.00;;;14.90;99.90;;;;;;6172564;23;20049;-82
2021/08/26 00:59:52;;;;;;;0.00;0.00;;;14.90;99.90;;;;;;6172074;23;20101;-83
2021/08/26 01:02:57;;;;;;;0.00;0.00;;;14.90;99.90;;;;;;6196995;23;20048;-83
2021/08/26 01:05:37;;;;;;;0.00;0.00;;;14.90;99.90;;;;;;6197126;23;20016;-83
2021/08/26 01:08:14;;;;;;;0.00;0.00;;;14.90;99.90;;;;;;6172271;23;20373;-82
2021/08/26 01:10:50;;;;;;;0.00;0.00;;;14.80;99.90;;;;;;6172575;23;20021;-82
2021/08/26 01:13:18;;;;;;;0.00;0.00;;;14.90;99.90;;;;;;6172422;23;20056;-82
2021/08/26 01:16:14;;;;;;;0.00;0.00;;;14.90;99.90;;;;;;6172139;23;20100;-82
2021/08/26 01:18:41;;;;;;;;;;;14.80;99.90;;;;;;6179124;23;20024;-82
2021/08/26 01:21:15;;;;;;;0.00;0.00;;;14.80;99.90;;;;;;6172088;23;19964;-82
2021/08/26 01:23:44;;;;;;;0.00;0.00;;;14.80;99.90;;;;;;6172433;23;20370;-82
2021/08/26 01:26:16;;;;;;;0.00;0.00;;;14.80;99.90;;;;;;6172243;23;20024;-82
2021/08/26 01:28:46;;;;;;;0.00;0.00;;;14.80;99.90;;;;;;6172337;23;20100;-83
2021/08/26 01:31:13;;;;;;;0.00;0.00;;;14.70;99.90;;;;;;6172319;23;20036;-83
2021/08/26 01:33:40;;;;;;;0.00;0.00;;;14.70;99.90;;;;;;6172283;23;20041;-83
2021/08/26 01:36:07;;;;;;;0.00;0.00;;;14.80;99.90;;;;;;6171910;23;20018;-82
2021/08/26 01:38:34;;;;;;;0.00;0.00;;;14.70;99.90;;;;;;6175036;23;20024;-83
2021/08/26 01:41:00;;;;;;;0.00;0.00;;;14.70;99.90;;;;;;6177165;23;20021;-83
2021/08/26 01:43:28;;;;;;;0.00;0.00;;;14.70;99.90;;;;;;6152950;23;20012;-82
2021/08/26 01:45:57;;;;;;;0.00;0.00;;;14.70;99.90;;;;;;6152801;23;20040;-82
2021/08/26 01:48:23;;;;;;;0.00;0.00;;;14.80;99.90;;;;;;6177309;23;20049;-83
2021/08/26 01:50:50;;;;;;;0.00;0.00;;;14.70;99.90;;;;;;6176917;23;20009;-83
2021/08/26 01:53:17;;;;;;;0.00;0.00;;;14.70;99.90;;;;;;6177367;23;20009;-82
2021/08/26 01:55:45;;;;;;;0.00;0.00;;;14.70;99.90;;;;;;6177203;23;20017;-83
2021/08/26 01:58:13;;;;;;;0.00;0.00;;;14.70;99.90;;;;;;6176877;23;20019;-82
2021/08/26 02:00:41;;;;;;;0.00;0.00;;;14.70;99.90;;;;;;6177226;23;20013;-83
2021/08/26 02:03:08;;;;;;;0.00;0.00;;;14.70;99.90;;;;;;6176944;23;20464;-82
2021/08/26 02:05:34;;;;;;;0.00;0.00;;;14.80;99.90;;;;;;6177171;23;20088;-82
2021/08/26 02:08:01;;;;;;;0.00;0.00;;;14.80;99.90;;;;;;6176815;23;20016;-82
2021/08/26 02:10:28;;;;;;;0.00;0.00;;;14.80;99.90;;;;;;6152680;23;20067;-82
2021/08/26 02:12:55;;;;;;;0.00;0.00;;;14.80;99.90;;;;;;6176750;23;20020;-82
2021/08/26 02:15:22;;;;;;;0.00;0.00;;;14.80;99.90;;;;;;6176769;23;20406;-82
2021/08/26 02:17:48;;;;;;;0.00;0.00;;;14.80;99.90;;;;;;6152710;23;20041;-83
2021/08/26 02:20:15;;;;;;;0.00;0.00;;;14.80;99.90;;;;;;6152321;23;20016;-83
2021/08/26 02:22:42;;;;;;;0.00;0.00;;;14.70;99.90;;;;;;6201700;23;20315;-83
2021/08/26 02:25:09;;;;;;;0.00;0.00;;;14.70;99.90;;;;;;6176628;23;20083;-82
2021/08/26 02:27:36;;;;;;;0.00;0.00;;;14.60;99.90;;;;;;6177137;23;20036;-82
2021/08/26 02:30:05;;;;;;;0.00;0.00;;;14.60;99.90;;;;;;6152368;23;20013;-82
2021/08/26 02:32:32;;;;;;;0.00;0.00;;;14.60;99.90;;;;;;6177125;23;20053;-82
2021/08/26 02:34:59;;;;;;;0.00;0.00;;;14.60;99.90;;;;;;6152243;23;20013;-82
2021/08/26 02:37:26;;;;;;;0.10;0.10;;;14.50;99.90;;;;;;6176933;23;20013;-82
2021/08/26 02:39:53;;;;;;;0.00;0.00;;;14.60;99.90;;;;;;6171449;23;20056;-82
2021/08/26 02:42:19;;;;;;;1.38;0.43;;;14.50;99.90;;;;;;6196130;23;20018;-82
2021/08/26 02:44:46;;;;;;;0.00;0.00;;;14.50;99.90;;;;;;6171864;23;20049;-83
2021/08/26 02:47:13;;;;;;;0.00;0.00;;;14.50;99.90;;;;;;6196176;23;20010;-82
2021/08/26 02:49:39;;;;;;;0.00;0.00;;;14.40;99.90;;;;;;6171708;23;20025;-82
2021/08/26 02:52:06;;;;;;;0.00;0.00;;;14.40;99.90;;;;;;6171589;23;20323;-83
2021/08/26 02:54:33;;;;;;;1.67;0.63;;;14.40;99.90;;;;;;6171709;23;20017;-82
2021/08/26 02:57:00;;;;;;;0.32;0.10;;;14.40;99.90;;;;;;6171423;23;20017;-83
2021/08/26 02:59:26;;;;;;;0.00;0.00;;;14.30;99.90;;;;;;6171694;23;20025;-83
2021/08/26 03:01:53;;;;;;;0.00;0.00;;;14.40;99.90;;;;;;6171788;23;20017;-83
2021/08/26 03:04:20;;;;;;;0.00;0.00;;;14.40;99.90;;;;;;6171447;23;20045;-83
2021/08/26 03:06:46;;;;;;;0.00;0.00;;;14.40;99.90;;;;;;6196377;23;20014;-83
2021/08/26 03:09:13;;;;;;;0.00;0.00;;;14.40;99.90;;;;;;6171558;23;20049;-83
2021/08/26 03:11:40;;;;;;;0.00;0.00;;;14.40;99.90;;;;;;6196306;23;20350;-82
2021/08/26 03:14:07;;;;;;;0.00;0.00;;;14.40;99.90;;;;;;6171426;23;20022;-82
2021/08/26 03:16:33;;;;;;;0.00;0.00;;;14.40;99.90;;;;;;6196270;23;20013;-83
2021/08/26 03:19:00;;;;;;;0.00;0.00;;;14.40;99.90;;;;;;6171288;23;20020;-83
2021/08/26 03:21:27;;;;;;;0.00;0.00;;;14.50;99.90;;;;;;6171726;23;20009;-82
2021/08/26 03:23:54;;;;;;;0.00;0.00;;;14.40;99.90;;;;;;6171683;23;20067;-83
2021/08/26 03:26:20;;;;;;;0.03;0.03;;;14.50;99.90;;;;;;6171583;23;20052;-83
2021/08/26 03:28:47;;;;;;;0.00;0.00;;;14.50;99.90;;;;;;6173509;23;20024;-83
2021/08/26 03:31:14;;;;;;;0.00;0.00;;;14.50;99.90;;;;;;6173085;23;20024;-83
2021/08/26 03:33:41;;;;;;;0.00;0.00;;;14.50;99.90;;;;;;6198074;23;20047;-83
2021/08/26 03:36:08;;;;;;;0.00;0.00;;;14.40;99.90;;;;;;6172901;23;20025;-82
2021/08/26 03:38:34;;;;;;;0.00;0.00;;;14.50;99.90;;;;;;6173352;23;20022;-83
2021/08/26 03:41:01;;;;;;;0.00;0.00;;;14.50;99.90;;;;;;6178389;23;20032;-82
2021/08/26 03:43:28;;;;;;;0.00;0.00;;;14.60;99.90;;;;;;6153770;23;20031;-83
2021/08/26 03:45:55;;;;;;;0.00;0.00;;;14.60;99.90;;;;;;6153925;23;20013;-82
2021/08/26 03:48:21;;;;;;;0.00;0.00;;;14.60;99.90;;;;;;6178140;23;20024;-82
2021/08/26 03:50:48;;;;;;;0.00;0.00;;;14.50;99.90;;;;;;6179174;23;20009;-83
2021/08/26 03:53:15;;;;;;;0.00;0.00;;;14.50;99.90;;;;;;6153679;23;20092;-83
2021/08/26 03:55:41;;;;;;;0.00;0.00;;;14.50;99.90;;;;;;6178284;23;20345;-82
2021/08/26 03:58:08;;;;;;;0.00;0.00;;;14.50;99.90;;;;;;6202575;23;20013;-83
2021/08/26 04:00:35;;;;;;;0.00;0.00;;;14.50;99.90;;;;;;6178383;23;20048;-82
2021/08/26 04:03:01;;;;;;;0.00;0.00;;;14.50;99.90;;;;;;6178168;23;20013;-83
2021/08/26 04:05:28;;;;;;;0.00;0.00;;;14.50;99.90;;;;;;6177928;23;20405;-82
2021/08/26 04:07:55;;;;;;;0.00;0.00;;;14.50;99.90;;;;;;6178127;23;20009;-83
2021/08/26 04:10:22;;;;;;;0.00;0.00;;;14.50;99.90;;;;;;6153471;23;20020;-83
2021/08/26 04:12:48;;;;;;;0.00;0.00;;;14.50;99.90;;;;;;6153652;23;20016;-82
2021/08/26 04:15:15;;;;;;;0.00;0.00;;;14.50;99.90;;;;;;6153324;23;20045;-83
2021/08/26 04:17:42;;;;;;;0.00;0.00;;;14.50;99.90;;;;;;6202659;23;20013;-83
2021/08/26 04:20:09;;;;;;;0.00;0.00;;;14.40;99.90;;;;;;6153178;23;20442;-83
2021/08/26 04:22:36;;;;;;;0.00;0.00;;;14.50;99.90;;;;;;6153682;23;20017;-83
2021/08/26 04:25:03;;;;;;;0.00;0.00;;;14.50;99.90;;;;;;6177983;23;20013;-83
2021/08/26 04:27:30;;;;;;;0.00;0.00;;;14.40;99.90;;;;;;6177564;23;20056;-83
2021/08/26 04:29:57;;;;;;;0.00;0.00;;;14.50;99.90;;;;;;6177623;23;20017;-83
2021/08/26 04:32:23;;;;;;;0.00;0.00;;;14.50;99.90;;;;;;6202238;23;20017;-83
2021/08/26 04:34:50;;;;;;;0.00;0.00;;;14.50;99.90;;;;;;6177606;23;20020;-82
2021/08/26 04:37:17;;;;;;;0.00;0.00;;;14.50;99.90;;;;;;6177044;23;20017;-82
2021/08/26 04:39:43;;;;;;;0.00;0.00;;;14.50;99.90;;;;;;6171400;23;20481;-82
2021/08/26 04:42:10;;;;;;;0.20;0.13;;;14.60;99.90;;;;;;6172463;23;20018;-83
2021/08/26 04:44:37;;;;;;;0.00;0.00;;;14.50;99.90;;;;;;6172598;23;20045;-82
2021/08/26 04:47:03;;;;;;;0.00;0.00;;;14.60;99.90;;;;;;6172672;23;20458;-82
2021/08/26 04:49:30;;;;;;;0.00;0.00;;;14.60;99.90;;;;;;6172322;23;20435;-82
2021/08/26 04:51:57;;;;;;;0.00;0.00;;;14.60;99.90;;;;;;6172627;23;20096;-82
2021/08/26 04:54:24;;;;;;;0.03;0.03;;;14.60;99.90;;;;;;6172257;23;20024;-82
2021/08/26 04:56:50;;;;;;;0.00;0.00;;;14.60;99.90;;;;;;6172566;23;20056;-82
2021/08/26 04:59:17;;;;;;;0.20;0.20;;;14.60;99.90;;;;;;6221463;23;20353;-83
2021/08/26 05:01:44;;;;;;;0.00;0.00;;;14.70;99.90;;;;;;6172572;23;20338;-83
2021/08/26 05:04:10;;;;;;;0.10;0.10;;;14.60;99.90;;;;;;6172586;23;20014;-82
2021/08/26 05:06:37;;;;;;;0.00;0.00;;;14.60;99.90;;;;;;6196670;23;20014;-82
2021/08/26 05:09:04;;;;;;;0.25;0.25;;;14.60;99.90;;;;;;6172412;23;20060;-82
2021/08/26 05:11:30;;;;;;;0.05;0.05;;;14.60;99.90;;;;;;6172061;23;20013;-83
2021/08/26 05:13:57;;;;;;;0.00;0.00;;;14.60;99.90;;;;;;6196876;23;20054;-82
2021/08/26 05:16:24;;;;;;;0.00;0.00;;;14.60;99.90;;;;;;6172036;23;20013;-82
2021/08/26 05:18:50;;;;;;;0.00;0.00;;;14.60;99.90;;;;;;6172245;23;20032;-82
2021/08/26 05:21:17;;;;;;;0.00;0.00;;;14.60;99.90;;;;;;6196636;23;20013;-83
2021/08/26 05:23:44;;;;;;;0.20;0.20;;;14.60;99.90;;;;;;6172297;23;20010;-83
2021/08/26 05:26:14;;;;;;;0.00;0.00;;;14.60;99.90;;;;;;6172420;23;20017;-86
2021/08/26 05:28:42;;;;;;;0.00;0.00;;;14.50;99.90;;;;;;6172060;23;20016;-86
2021/08/26 05:31:09;;;;;;;0.00;0.00;;;14.50;99.90;;;;;;6172415;23;20048;-83
2021/08/26 05:33:36;;;;;;;0.00;0.00;;;14.50;99.90;;;;;;6171943;23;20018;-84
2021/08/26 05:36:03;;;;;;;0.13;0.13;;;14.50;99.90;;;;;;6172220;23;20136;-83
2021/08/26 05:38:30;;;;;;;0.00;0.00;;;14.50;99.90;;;;;;6171642;23;20057;-81
2021/08/26 05:40:56;;;;;;;0.00;0.00;;;14.50;99.90;;;;;;6171784;23;20338;-82
2021/08/26 05:43:23;;;;;;;0.00;0.00;;;14.50;99.90;;;;;;6171810;23;20092;-82
2021/08/26 05:45:50;;;;;;;0.00;0.00;;;14.50;99.90;;;;;;6172218;23;20506;-81
2021/08/26 05:48:17;;;;;;;0.00;0.00;;;14.60;99.90;;;;;;6172228;23;20010;-82
2021/08/26 05:50:43;;;;;;;0.00;0.00;;;14.60;99.90;;;;;;6171516;23;20020;-82
2021/08/26 05:53:10;;;;;;;0.00;0.00;;;14.60;99.90;;;;;;6172108;23;20052;-84
2021/08/26 05:55:37;;;;;;;0.00;0.00;;;14.50;99.90;;;;;;6171710;23;20064;-82
2021/08/26 05:58:04;;;;;;;0.00;0.00;;;14.50;99.90;;;;;;6172168;23;20027;-82
2021/08/26 06:00:30;;;;;;;0.00;0.00;;;14.50;99.90;;;;;;6221029;23;20096;-84
2021/08/26 06:02:57;;;;;;;0.00;0.00;;;14.60;99.90;;;;;;6172047;23;20013;-88
2021/08/26 06:05:24;;;;;;;0.10;0.10;;;14.50;99.90;;;;;;6171714;23;20045;-82
2021/08/26 06:07:50;;;;;;;0.00;0.00;;;14.60;99.90;;;;;;6171923;23;20051;-82
2021/08/26 06:10:17;;;;;;;0.00;0.00;;;14.60;99.90;;;;;;6197035;23;20072;-82
2021/08/26 06:12:44;;;;;;;0.45;0.25;;;14.60;99.90;;;;;;6171704;23;20013;-82
2021/08/26 06:15:12;;;;;;;0.00;0.00;;;14.70;99.90;;;;;;6221698;23;20064;-84
2021/08/26 06:17:39;;;;;;;0.00;0.00;;;14.70;99.90;;;;;;6171507;23;20014;-83
2021/08/26 06:20:09;;;;;;;0.00;0.00;;;14.80;99.90;;;;;;6171901;23;20040;-84
2021/08/26 06:22:36;;;;;;;0.00;0.00;;;14.80;99.90;;;;;;6171713;23;20339;-84
2021/08/26 06:25:03;;;;;;;0.00;0.00;;;14.80;99.90;;;;;;6172275;23;20010;-86
2021/08/26 06:27:30;;;;;;;0.00;0.00;;;14.90;99.90;;;;;;6196194;23;20025;-86
2021/08/26 06:29:57;;;;;;;0.00;0.00;;;15.00;99.90;;;;;;6172016;23;20013;-85
2021/08/26 06:32:24;;;;;;;0.00;0.00;;;15.00;99.90;;;;;;6172177;23;20341;-89
2021/08/26 06:34:51;;;;;;;0.00;0.00;;;15.10;99.90;;;;;;6172318;23;20052;-86
2021/08/26 06:37:17;;;;;;;0.00;0.00;;;15.10;99.90;;;;;;6171979;23;20014;-85
2021/08/26 06:39:44;;;;;;;0.00;0.00;;;15.10;99.90;;;;;;6171716;23;20013;-91
2021/08/26 06:42:11;;;;;;;0.10;0.10;;;15.20;99.90;;;;;;6173033;23;20350;-90
2021/08/26 06:44:38;;;;;;;0.38;0.22;;;15.20;99.90;;;;;;6172700;23;20016;-88
2021/08/26 06:47:05;;;;;;;0.00;0.00;;;15.20;99.90;;;;;;6172529;23;20021;-90
2021/08/26 06:49:32;;;;;;;0.15;0.10;;;15.30;99.90;;;;;;6197355;23;20036;-90
2021/08/26 06:51:59;;;;;;;0.08;0.08;;;15.30;99.90;;;;;;6172578;23;20014;-89
2021/08/26 06:54:38;;;;;;;0.00;0.00;;;15.40;99.90;;;;;;6176823;23;20069;-95
2021/08/26 06:57:06;;;;;;;0.00;0.00;;;15.50;99.90;;;;;;6173920;23;20013;-89
2021/08/26 06:59:33;;;;;;;0.00;0.00;;;15.50;99.90;;;;;;6173737;23;20017;-90
2021/08/26 07:02:00;;;;;;;0.00;0.00;;;15.60;99.90;;;;;;6173910;23;20330;-87
2021/08/26 07:04:32;;;;;;;0.00;0.00;;;15.70;99.90;;;;;;6174716;23;20014;-91
2021/08/26 07:06:59;;;;;;;0.00;0.00;;;15.80;99.90;;;;;;6175138;23;20502;-88
2021/08/26 07:09:27;;;;;;;0.00;0.00;;;15.70;99.90;;;;;;6174791;23;20442;-93
2021/08/26 07:11:53;;;;;;;0.10;0.10;;;16.00;99.90;;;;;;6174537;23;20024;-92
2021/08/26 07:14:26;;;;;;;0.00;0.00;;;16.10;99.90;;;;;;6175082;23;20342;-93
2021/08/26 07:16:53;;;;;;;0.10;0.10;;;16.20;99.90;;;;;;6174569;23;20045;-90
2021/08/26 07:19:20;;;;;;;0.00;0.00;;;16.30;99.90;;;;;;6199102;23;20021;-91
2021/08/26 07:21:48;;;;;;;0.10;0.10;;;16.40;99.90;;;;;;6174827;23;20014;-92
2021/08/26 07:24:15;;;;;;;0.00;0.00;;;16.50;99.90;;;;;;6174810;23;20015;-90
2021/08/26 07:26:42;;;;;;;0.00;0.00;;;16.60;99.90;;;;;;6174645;23;20092;-91
2021/08/26 07:29:34;;;;;;;0.10;0.08;;;16.60;99.90;;;;;;6176806;23;20017;-92
2021/08/26 07:32:14;;;;;;;0.00;0.00;;;16.60;99.90;;;;;;6199340;23;20029;-95
2021/08/26 07:34:47;;;;;;;0.00;0.00;;;16.60;99.90;;;;;;6175793;23;20100;-90
2021/08/26 07:37:17;;;;;;;0.00;0.00;;;16.60;99.90;;;;;;6178088;23;20018;-95
2021/08/26 07:39:55;;;;;;;0.00;0.00;;;16.60;99.90;;;;;;6181614;23;20017;-95
2021/08/26 07:47:12;;;;;;;0.00;0.00;;;16.50;99.90;;;;;;6235536;23;20016;-96
2021/08/26 07:49:42;;;;;;;0.00;0.00;;;16.30;99.90;;;;;;6179287;23;20012;-93
2021/08/26 08:03:46;;;;;;;0.50;0.20;;;17.10;99.90;;;;;;6265702;22;20030;-91
2021/08/26 08:06:13;;;;;;;0.00;0.00;;;17.10;99.90;;;;;;6240189;23;20020;-89
2021/08/26 08:08:44;;;;;;;0.52;0.10;;;17.20;99.90;;;;;;6244790;23;20027;-95
2021/08/26 08:11:11;;;;;;;2.22;0.60;;;17.20;99.90;;;;;;6249420;23;20091;-95
2021/08/26 08:13:38;;;;;;;0.10;0.10;;;17.20;99.90;;;;;;6243997;23;20337;-90
2021/08/26 08:16:05;;;;;;;0.00;0.00;;;17.20;99.90;;;;;;6214941;23;20016;-90
2021/08/26 08:18:36;;;;;;;0.00;0.00;;;17.10;99.90;;;;;;6217611;23;20023;-95
2021/08/26 08:21:03;;;;;;;0.10;0.10;;;17.10;99.90;;;;;;6239827;23;20012;-94
2021/08/26 08:23:32;;;;;;;0.10;0.05;;;17.10;99.90;;;;;;6239792;23;20445;-94
2021/08/26 08:25:59;;;;;;;0.70;0.10;;;17.20;99.90;;;;;;6239524;23;20020;-90
2021/08/26 08:28:27;;;;;;;0.00;0.00;;;17.20;99.90;;;;;;6239636;23;20336;-92
2021/08/26 08:30:53;;;;;;;0.00;0.00;;;17.20;99.90;;;;;;6239167;23;20047;-91
2021/08/26 08:38:34;;;;;;;0.38;0.22;;;17.50;99.90;;;;;;6291337;22;20020;-91
2021/08/26 08:41:01;;;;;;;0.00;0.00;;;17.80;99.90;;;;;;6240155;23;20019;-89
2021/08/26 08:43:28;;;;;;;0.08;0.08;;;18.00;99.90;;;;;;6240209;23;20012;-86
2021/08/26 08:45:55;;;;;;;0.20;0.10;;;18.30;99.90;;;;;;6238724;23;20007;-92
2021/08/26 08:48:24;;;;;;;1.35;0.40;;;18.60;99.90;;;;;;6238980;23;20012;-85
2021/08/26 08:50:51;;;;;;;0.00;0.00;;;18.90;99.90;;;;;;6238753;23;20042;-88
2021/08/26 08:53:18;;;;;;;0.30;0.30;;;19.10;99.90;;;;;;6238596;23;20111;-91
2021/08/26 08:55:47;;;;;;;0.00;0.00;;;19.30;99.90;;;;;;6239850;23;20012;-87
2021/08/26 08:58:17;;;;;;;0.00;0.00;;;19.40;99.90;;;;;;6238787;23;20091;-87
2021/08/26 09:00:44;;;;;;;0.10;0.10;;;19.60;99.90;;;;;;6237250;23;20039;-90
2021/08/26 09:03:11;;;;;;;0.20;0.20;;;19.80;99.90;;;;;;6238221;23;20023;-88
2021/08/26 09:05:54;;;;;;;0.20;0.20;;;19.90;99.90;;;;;;6262094;23;20341;-84
2021/08/26 09:08:23;;;;;;;0.20;0.15;;;19.80;99.90;;;;;;6237531;23;20336;-85
2021/08/26 09:10:55;;;;;;;0.10;0.00;;;19.70;99.90;;;;;;6237274;23;20035;-86
2021/08/26 09:13:30;;;;;;;0.35;0.32;;;19.80;99.90;;;;;;6237367;23;20018;-83
2021/08/26 09:15:57;;;;;;;0.15;0.15;;;19.80;99.90;;;;;;6237862;23;20011;-89
2021/08/26 09:18:24;;;;;;;1.08;0.80;;;19.80;99.90;;;;;;6238193;23;20433;-87
2021/08/26 09:20:57;;;;;;;0.38;0.32;;;20.00;99.90;;;;;;6237822;23;20385;-84
2021/08/26 09:23:27;;;;;;;0.65;0.30;;;20.00;99.90;;;;;;6262514;23;20016;-89
2021/08/26 09:25:55;;;;;;;1.55;0.52;;;20.00;99.90;;;;;;6237434;23;20008;-85
2021/08/26 09:28:30;;;;;;;0.10;0.10;;;19.90;99.90;;;;;;6237467;23;20091;-86
2021/08/26 09:31:09;;;;;;;0.20;0.10;;;19.90;99.90;;;;;;6262890;23;20101;-90
2021/08/26 09:33:55;;;;;;;0.20;0.20;;;20.10;99.90;;;;;;6238615;23;20012;-86
2021/08/26 09:36:27;;;;;;;0.10;0.10;;;20.00;99.90;;;;;;6237468;23;20424;-88
2021/08/26 09:42:50;;;;;;;0.00;0.00;;;20.00;99.90;;;;;;6315766;22;20020;-84
2021/08/26 09:45:40;;;;;;;0.75;0.65;;;20.10;99.90;;;;;;6199674;23;20028;-87
2021/08/26 09:48:15;;;;;;;0.20;0.20;;;20.10;99.90;;;;;;6176017;23;20395;-87
2021/08/26 09:50:46;;;;;;;0.00;0.00;;;20.10;99.90;;;;;;6176749;23;20031;-85
2021/08/26 09:53:15;;;;;;;2.08;0.43;;;20.10;99.90;;;;;;6180360;23;20445;-86
2021/08/26 09:55:54;;;;;;;0.20;0.20;;;20.10;99.90;;;;;;6176016;23;20048;-85
2021/08/26 09:58:24;;;;;;;0.13;0.13;;;20.10;99.90;;;;;;6201504;23;20160;-85
2021/08/26 10:01:21;;;;;;;1.80;0.45;;;20.20;99.90;;;;;;6176269;23;20072;-89
2021/08/26 10:03:48;;;;;;;0.10;0.10;;;20.20;99.90;;;;;;6200887;23;20048;-90
2021/08/26 10:06:21;;;;;;;9.52;0.30;;;20.10;99.90;;;;;;6177291;23;20020;-90
2021/08/26 10:08:49;;;;;;;0.00;0.00;;;20.20;99.90;;;;;;6178599;23;20027;-89
2021/08/26 10:11:18;;;;;;;0.63;0.47;;;20.20;99.90;;;;;;6177468;23;20495;-92
2021/08/26 12:18:14;;;;;;;0.30;0.10;;;20.30;99.90;;;;;;6263662;23;20024;-85
2021/08/26 12:20:51;;;;;;;0.00;0.00;;;20.30;99.90;;;;;;6237287;23;20048;-86
2021/08/26 12:23:27;;;;;;;0.00;0.00;;;20.20;99.90;;;;;;6237871;23;20048;-84
2021/08/26 12:26:12;;;;;;;0.65;0.32;;;20.20;99.90;;;;;;6232220;23;20016;-84
2021/08/26 12:28:42;;;;;;;0.00;0.00;;;19.90;99.90;;;;;;6238393;23;20331;-85
2021/08/26 12:31:11;;;;;;;0.00;0.00;;;19.90;99.90;;;;;;6237874;23;20051;-87
2021/08/26 12:33:55;;;;;;;0.00;0.00;;;20.00;99.90;;;;;;6238313;23;20015;-90
2021/08/26 12:36:30;;;;;;;0.47;0.10;;;20.10;99.90;;;;;;6238999;23;20012;-88
2021/08/26 12:38:56;;;;;;;0.00;0.00;;;20.20;99.90;;;;;;6238058;23;20440;-87
2021/08/26 12:41:24;;;;;;;0.00;0.00;;;20.40;99.90;;;;;;6213482;23;20238;-88
2021/08/26 12:43:53;;;;;;;0.00;0.00;;;20.40;99.90;;;;;;6237964;23;20346;-87
2021/08/26 12:46:32;;;;;;;0.00;0.00;;;20.50;99.90;;;;;;6239668;23;20041;-94
2021/08/26 12:49:11;;;;;;;0.00;0.00;;;20.70;99.90;;;;;;6237699;23;20012;-90
2021/08/26 12:51:53;;;;;;;0.00;0.00;;;20.70;99.90;;;;;;6238159;23;20012;-89
2021/08/26 12:54:20;;;;;;;2.20;0.35;;;20.70;99.90;;;;;;6239577;23;20467;-96
2021/08/26 12:56:49;;;;;;;0.00;0.00;;;20.70;99.90;;;;;;6242692;23;20712;-87
2021/08/26 12:59:18;;;;;;;2.50;0.50;;;20.80;99.90;;;;;;6238350;23;20020;-90
2021/08/26 13:02:03;;;;;;;0.00;0.00;;;20.70;99.90;;;;;;6191049;23;20012;-88
2021/08/26 13:04:30;;;;;;;0.00;0.00;;;20.90;99.90;;;;;;6263597;23;20041;-87
2021/08/26 13:06:57;;;;;;;0.65;0.47;;;20.70;99.90;;;;;;6238004;23;20091;-86
2021/08/26 13:09:37;;;;;;;1.85;0.20;;;20.60;99.90;;;;;;6237941;23;20094;-85
2021/08/26 13:12:04;;;;;;;0.15;0.15;;;20.40;99.90;;;;;;6237809;23;20101;-85
2021/08/26 13:14:40;;;;;;;0.03;0.03;;;20.20;99.90;;;;;;6239073;23;20060;-86
2021/08/26 13:17:12;;;;;;;0.00;0.00;;;20.00;99.90;;;;;;6238285;23;20336;-85
2021/08/26 13:19:41;;;;;;;0.03;0.03;;;19.80;99.90;;;;;;6238198;23;20012;-86
2021/08/26 13:22:31;;;;;;;0.00;0.00;;;19.70;99.90;;;;;;6237974;23;20012;-85
2021/08/26 13:25:04;;;;;;;0.00;0.00;;;19.70;99.90;;;;;;6237355;23;20004;-86
2021/08/26 13:27:32;;;;;;;0.20;0.15;;;19.70;99.90;;;;;;6215196;23;20004;-89
2021/08/26 13:29:59;;;;;;;2.65;0.43;;;19.70;99.90;;;;;;6238156;23;20071;-93
2021/08/26 13:32:27;;;;;;;0.00;0.00;;;19.80;99.90;;;;;;6238548;23;20344;-85
2021/08/26 13:34:54;;;;;;;0.00;0.00;;;19.80;99.90;;;;;;6188591;23;20023;-89
2021/08/26 13:37:21;;;;;;;1.27;0.47;;;19.70;99.90;;;;;;6237616;23;20016;-88
2021/08/26 13:39:48;;;;;;;0.10;0.10;;;19.70;99.90;;;;;;6237937;23;20094;-86
2021/08/26 13:42:17;;;;;;;0.00;0.00;;;19.70;99.90;;;;;;6237596;23;20488;-86
2021/08/26 13:44:44;;;;;;;0.00;0.00;;;19.60;99.90;;;;;;6237887;23;20019;-86
2021/08/26 13:47:11;;;;;;;0.00;0.00;;;19.50;99.90;;;;;;6238031;23;20038;-88
2021/08/26 13:49:37;;;;;;;0.10;0.10;;;19.50;99.90;;;;;;6213467;23;20016;-89
2021/08/26 13:52:05;;;;;;;0.00;0.00;;;19.50;99.90;;;;;;6188593;23;20465;-85
2021/08/26 13:54:31;;;;;;;0.00;0.00;;;19.60;99.90;;;;;;6214182;23;20016;-95
2021/08/26 13:56:58;;;;;;;0.00;0.00;;;19.60;99.90;;;;;;6213725;23;20317;-91
2021/08/26 13:59:25;;;;;;;0.00;0.00;;;19.70;99.90;;;;;;6238823;23;20012;-83
2021/08/26 14:01:52;;;;;;;0.00;0.00;;;19.70;99.90;;;;;;6190554;23;20012;-91
2021/08/26 14:04:19;;;;;;;0.00;0.00;;;19.70;99.90;;;;;;6190760;23;20043;-85
2021/08/26 14:06:46;;;;;;;0.00;0.00;;;19.60;99.90;;;;;;6189998;23;20178;-90
2021/08/26 14:09:13;;;;;;;0.00;0.00;;;19.70;99.90;;;;;;6238411;23;20094;-87
2021/08/26 14:11:41;;;;;;;0.00;0.00;;;19.70;99.90;;;;;;6213763;22;20090;-91
2021/08/26 14:14:10;;;;;;;0.00;0.00;;;19.70;99.90;;;;;;6238535;23;20042;-89
2021/08/26 14:16:38;;;;;;;2.17;0.30;;;19.60;99.90;;;;;;6213792;23;20066;-87
2021/08/26 14:19:05;;;;;;;0.00;0.00;;;19.60;99.90;;;;;;6237250;23;20080;-87
2021/08/26 14:21:32;;;;;;;0.00;0.00;;;19.70;99.90;;;;;;6237443;23;20016;-86
2021/08/26 14:23:59;;;;;;;0.00;0.00;;;19.70;99.90;;;;;;6238323;23;20015;-87
2021/08/26 14:26:27;;;;;;;2.25;0.30;;;19.50;99.90;;;;;;6236982;23;20016;-85
2021/08/26 14:28:54;;;;;;;0.00;0.00;;;19.40;99.90;;;;;;6238521;23;20039;-87
2021/08/26 14:31:20;;;;;;;1.45;0.40;;;19.20;99.90;;;;;;6212799;23;20062;-80
2021/08/26 14:33:47;;;;;;;0.00;0.00;;;19.20;99.90;;;;;;6212028;23;20009;-79
2021/08/26 14:36:14;;;;;;;0.00;0.00;;;19.20;99.90;;;;;;6211274;23;20012;-78
2021/08/26 14:38:41;;;;;;;0.00;0.00;;;19.20;99.90;;;;;;6261806;23;20341;-79
2021/08/26 14:41:28;;;;;;;0.10;0.10;;;19.20;99.90;;;;;;6238683;23;20074;-96
2021/08/26 14:43:56;;;;;;;;;;;19.10;99.90;;;;;;6240436;23;20011;-91
2021/08/26 14:46:23;;;;;;;0.00;0.00;;;19.10;99.90;;;;;;6240342;23;19911;-95
2021/08/26 14:48:50;;;;;;;0.00;0.00;;;19.10;99.90;;;;;;6246556;22;20069;-93
2021/08/26 14:51:17;;;;;;;1.77;0.55;;;19.00;99.90;;;;;;6241636;23;20043;-88
2021/08/26 14:53:47;;;;;;;0.00;0.00;;;18.90;99.90;;;;;;6241081;23;20008;-95
2021/08/26 15:06:39;;;;;;;0.00;0.00;;;18.70;99.90;;;;;;6290444;22;20024;-88
2021/08/26 15:09:07;;;;;;;0.00;0.00;;;18.70;99.90;;;;;;6238012;23;20024;-92
2021/08/26 15:11:33;;;;;;;0.10;0.10;;;18.70;99.90;;;;;;6238193;23;20012;-87
2021/08/26 15:14:00;;;;;;;0.20;0.20;;;18.70;99.90;;;;;;6238128;23;20008;-88
2021/08/26 15:16:27;;;;;;;0.00;0.00;;;18.70;99.90;;;;;;6237539;23;20008;-89
2021/08/26 15:18:54;;;;;;;0.00;0.00;;;18.60;99.90;;;;;;6237431;23;20008;-88
2021/08/26 15:21:21;;;;;;;0.00;0.00;;;18.70;99.90;;;;;;6212982;23;20015;-88
2021/08/26 15:24:24;;;;;;;0.00;0.00;;;18.80;99.90;;;;;;6215170;23;20012;-92
2021/08/26 15:26:50;;;;;;;0.00;0.00;;;18.80;99.90;;;;;;6239607;23;20012;-89
2021/08/26 15:29:17;;;;;;;0.00;0.00;;;18.80;99.90;;;;;;6240181;23;20019;-85
2021/08/26 15:31:50;;;;;;;0.00;0.00;;;18.70;99.90;;;;;;6265484;23;20016;-88
2021/08/26 15:34:18;;;;;;;0.22;0.20;;;18.70;99.90;;;;;;6242246;23;20016;-85
2021/08/26 15:36:45;;;;;;;0.08;0.08;;;18.40;99.90;;;;;;6240669;23;20041;-86
2021/08/26 15:39:18;;;;;;;0.00;0.00;;;18.40;99.90;;;;;;6241717;23;20090;-91